createdAt,value
2023-03-25T00:03:14.982Z,10.70
2023-03-25T00:08:16.971Z,10.80
2023-03-25T00:13:18.778Z,10.80
2023-03-25T00:18:22.641Z,10.70
2023-03-25T00:23:24.463Z,10.70
2023-03-25T00:28:28.678Z,10.80
2023-03-25T00:33:31.734Z,10.80
2023-03-25T00:38:35.337Z,10.90
2023-03-25T00:43:37.237Z,11.00
2023-03-25T00:48:39.235Z,10.90
2023-03-25T00:53:41.057Z,11.00
2023-03-25T00:58:42.769Z,10.80
2023-03-25T01:03:44.958Z,10.90
2023-03-25T01:08:47.160Z,11.00
2023-03-25T01:13:48.912Z,11.00
2023-03-25T01:18:50.920Z,11.00
2023-03-25T01:23:52.695Z,11.10
2023-03-25T01:28:54.390Z,11.10
2023-03-25T01:33:59.988Z,11.10
2023-03-25T01:39:02.507Z,11.10
2023-03-25T01:44:10.500Z,11.10
2023-03-25T01:49:23.496Z,11.10
2023-03-25T01:54:27.463Z,11.10
2023-03-25T01:59:29.668Z,11.10
2023-03-25T02:04:44.350Z,11.10
2023-03-25T02:09:46.250Z,11.10
2023-03-25T02:14:47.985Z,11.10
2023-03-25T02:20:27.763Z,11.10
2023-03-25T02:25:36.368Z,11.10
2023-03-25T02:30:57.722Z,11.20
2023-03-25T02:36:21.256Z,11.10
2023-03-25T02:41:33.265Z,11.10
2023-03-25T02:46:36.270Z,11.10
2023-03-25T02:51:44.001Z,11.00
2023-03-25T02:56:49.182Z,11.00
2023-03-25T03:01:58.413Z,10.90
2023-03-25T03:07:01.361Z,10.90
2023-03-25T03:12:27.816Z,11.00
2023-03-25T03:17:58.156Z,11.00
2023-03-25T03:23:24.044Z,11.00
2023-03-25T03:28:33.357Z,11.00
2023-03-25T03:33:46.884Z,10.90
2023-03-25T03:39:04.106Z,11.00
2023-03-25T03:44:17.770Z,11.00
2023-03-25T03:49:24.502Z,11.10
2023-03-25T03:54:31.371Z,11.00
2023-03-25T04:00:10.338Z,11.10
2023-03-25T04:05:16.190Z,11.10
2023-03-25T04:10:29.161Z,11.10
2023-03-25T04:15:31.219Z,11.10
2023-03-25T04:20:36.516Z,11.20
2023-03-25T04:25:38.307Z,11.30
2023-03-25T04:30:41.045Z,11.10
2023-03-25T04:35:42.776Z,11.10
2023-03-25T04:40:48.377Z,11.10
2023-03-25T04:45:54.500Z,11.10
2023-03-25T04:50:58.917Z,11.10
2023-03-25T04:56:00.624Z,11.00
2023-03-25T05:01:06.284Z,11.00
2023-03-25T05:06:08.259Z,11.00
2023-03-25T05:11:09.959Z,11.00
2023-03-25T05:16:11.775Z,11.10
2023-03-25T05:21:13.659Z,11.00
2023-03-25T05:26:15.975Z,10.90
2023-03-25T05:31:18.411Z,10.90
2023-03-25T05:36:20.414Z,10.80
2023-03-25T05:41:22.822Z,10.70
2023-03-25T05:46:24.605Z,10.60
2023-03-25T05:51:27.265Z,10.50
2023-03-25T05:56:29.808Z,10.40
2023-03-25T06:01:34.294Z,10.30
2023-03-25T06:06:36.358Z,10.30
2023-03-25T06:11:38.903Z,10.30
2023-03-25T06:16:40.947Z,10.40
2023-03-25T06:21:43.818Z,10.50
2023-03-25T06:26:45.950Z,10.90
2023-03-25T06:31:47.720Z,11.40
2023-03-25T06:36:50.496Z,11.60
2023-03-25T06:41:52.381Z,11.60
2023-03-25T06:46:57.979Z,11.70
2023-03-25T06:52:00.657Z,11.60
2023-03-25T06:57:02.433Z,11.50
2023-03-25T07:02:04.248Z,11.70
2023-03-25T07:07:05.970Z,11.70
2023-03-25T07:12:09.224Z,11.60
2023-03-25T07:17:12.330Z,11.70
2023-03-25T07:22:14.239Z,12.00
2023-03-25T07:27:16.417Z,12.00
2023-03-25T07:32:18.506Z,11.90
2023-03-25T07:37:20.220Z,11.60
2023-03-25T07:42:21.924Z,11.40
2023-03-25T07:47:23.742Z,11.40
2023-03-25T07:52:25.470Z,11.40
2023-03-25T07:57:27.284Z,11.50
2023-03-25T08:02:29.250Z,11.50
2023-03-25T08:07:31.564Z,11.70
2023-03-25T08:12:33.259Z,11.70
2023-03-25T08:17:35.265Z,11.70
2023-03-25T08:22:37.018Z,12.00
2023-03-25T08:27:38.936Z,12.20
2023-03-25T08:32:40.674Z,12.10
2023-03-25T08:37:42.388Z,12.00
2023-03-25T08:42:44.591Z,12.30
2023-03-25T08:47:46.256Z,12.20
2023-03-25T08:52:52.085Z,12.10
2023-03-25T08:57:53.806Z,12.00
2023-03-25T09:02:57.757Z,12.00
2023-03-25T09:07:59.551Z,11.90
2023-03-25T09:13:01.267Z,12.10
2023-03-25T09:18:03.720Z,12.30
2023-03-25T09:23:05.614Z,12.00
2023-03-25T09:28:07.438Z,12.00
2023-03-25T09:33:09.225Z,12.70
2023-03-25T09:38:11.066Z,12.70
2023-03-25T09:43:25.938Z,12.60
2023-03-25T09:48:39.591Z,12.60
2023-03-25T09:53:50.812Z,12.50
2023-03-25T09:59:09.909Z,12.40
2023-03-25T10:04:20.901Z,12.80
2023-03-25T10:09:54.926Z,12.70
2023-03-25T10:15:04.881Z,12.50
2023-03-25T10:20:12.998Z,12.80
2023-03-25T10:25:20.411Z,13.80
2023-03-25T10:30:23.613Z,14.20
2023-03-25T10:35:36.065Z,13.80
2023-03-25T10:40:44.586Z,13.40
2023-03-25T10:45:48.180Z,13.30
2023-03-25T10:50:52.360Z,13.30
2023-03-25T10:56:04.686Z,13.50
2023-03-25T11:01:19.044Z,13.90
2023-03-25T11:06:31.700Z,14.10
2023-03-25T11:11:35.007Z,14.00
2023-03-25T11:16:48.884Z,14.10
2023-03-25T11:22:00.804Z,13.70
2023-03-25T11:27:04.336Z,14.10
2023-03-25T11:32:16.396Z,14.60
2023-03-25T11:37:22.122Z,14.40
2023-03-25T11:42:35.720Z,14.30
2023-03-25T11:47:40.368Z,14.50
2023-03-25T11:52:45.790Z,14.80
2023-03-25T11:57:53.725Z,14.90
2023-03-25T12:03:16.523Z,15.40
2023-03-25T12:08:19.382Z,15.50
2023-03-25T12:13:53.145Z,15.20
2023-03-25T12:19:03.310Z,15.00
2023-03-25T12:24:05.367Z,14.60
2023-03-25T12:29:28.641Z,14.10
2023-03-25T12:35:01.039Z,14.30
2023-03-25T12:40:19.975Z,14.70
2023-03-25T12:45:44.477Z,15.00
2023-03-25T12:51:03.013Z,15.10
2023-03-25T12:56:45.987Z,15.00
2023-03-25T13:01:50.752Z,15.50
2023-03-25T13:07:11.464Z,15.00
2023-03-25T13:12:34.005Z,14.00
2023-03-25T13:17:44.832Z,10.10
2023-03-25T13:22:53.621Z,9.40
2023-03-25T13:28:04.057Z,9.10
2023-03-25T13:33:21.926Z,8.70
2023-03-25T13:38:37.334Z,8.80
2023-03-25T13:44:12.937Z,9.20
2023-03-25T13:49:37.143Z,9.70
2023-03-25T13:55:01.908Z,10.20
2023-03-25T14:00:06.054Z,10.20
2023-03-25T14:05:48.956Z,10.00
2023-03-25T14:10:57.402Z,10.10
2023-03-25T14:16:09.865Z,10.60
2023-03-25T14:21:32.459Z,10.80
2023-03-25T14:26:37.590Z,11.10
2023-03-25T14:31:39.593Z,11.20
2023-03-25T14:36:41.815Z,11.40
2023-03-25T14:41:57.797Z,12.00
2023-03-25T14:47:22.490Z,12.60
2023-03-25T14:52:43.769Z,13.10
2023-03-25T14:57:46.905Z,13.50
2023-03-25T15:03:00.830Z,13.40
2023-03-25T15:08:17.599Z,13.00
2023-03-25T15:13:33.207Z,13.40
2023-03-25T15:18:35.240Z,12.80
2023-03-25T15:23:51.344Z,12.40
2023-03-25T15:29:21.394Z,12.40
2023-03-25T15:34:47.765Z,12.40
2023-03-25T15:40:33.312Z,12.40
2023-03-25T15:46:12.061Z,12.50
2023-03-25T15:51:32.281Z,12.70
2023-03-25T15:56:43.882Z,12.90
2023-03-25T16:01:51.521Z,12.90
2023-03-25T16:06:56.145Z,13.30
2023-03-25T16:12:03.867Z,13.70
2023-03-25T16:17:08.815Z,14.00
2023-03-25T16:22:28.645Z,14.10
2023-03-25T16:27:36.857Z,13.70
2023-03-25T16:32:38.614Z,13.10
2023-03-25T16:37:40.854Z,12.80
2023-03-25T16:42:42.568Z,12.80
2023-03-25T16:47:46.341Z,12.80
2023-03-25T16:52:50.397Z,12.70
2023-03-25T16:57:52.407Z,12.40
2023-03-25T17:02:54.330Z,12.50
2023-03-25T17:07:59.931Z,12.50
2023-03-25T17:13:08.608Z,12.40
2023-03-25T17:18:15.006Z,12.40
2023-03-25T17:23:16.657Z,12.20
2023-03-25T17:28:33.250Z,12.00
2023-03-25T17:33:39.167Z,11.80
2023-03-25T17:38:50.123Z,11.60
2023-03-25T17:43:54.960Z,11.50
2023-03-25T17:48:58.287Z,11.40
2023-03-25T17:54:00.110Z,11.20
2023-03-25T17:59:04.598Z,11.10
2023-03-25T18:04:07.118Z,11.10
2023-03-25T18:09:23.602Z,11.00
2023-03-25T18:14:26.242Z,11.10
2023-03-25T18:19:31.866Z,11.10
2023-03-25T18:24:34.141Z,11.20
2023-03-25T18:29:37.325Z,11.10
2023-03-25T18:34:39.071Z,10.90
2023-03-25T18:39:40.889Z,10.70
2023-03-25T18:44:42.650Z,10.50
2023-03-25T18:49:44.365Z,10.30
2023-03-25T18:54:46.079Z,10.30
2023-03-25T18:59:47.799Z,10.20
2023-03-25T19:05:00.291Z,10.20
2023-03-25T19:10:03.463Z,10.20
2023-03-25T19:15:05.549Z,10.30
2023-03-25T19:20:09.072Z,10.20
2023-03-25T19:25:11.626Z,10.10
2023-03-25T19:30:17.520Z,10.00
2023-03-25T19:35:21.402Z,10.10
2023-03-25T19:40:26.266Z,10.30
2023-03-25T19:45:30.382Z,10.30
2023-03-25T19:50:34.531Z,10.30
2023-03-25T19:55:38.776Z,10.30
2023-03-25T20:00:45.376Z,10.10
2023-03-25T20:05:48.370Z,10.00
2023-03-25T20:10:50.564Z,9.90
2023-03-25T20:15:52.969Z,9.70
2023-03-25T20:20:55.076Z,9.60
2023-03-25T20:25:56.983Z,9.50
2023-03-25T20:31:01.579Z,9.50
2023-03-25T20:36:03.655Z,9.60
2023-03-25T20:41:06.424Z,9.60
2023-03-25T20:46:10.278Z,9.70
2023-03-25T20:51:12.205Z,9.70
2023-03-25T20:56:14.044Z,9.80
2023-03-25T21:01:16.233Z,9.90
2023-03-25T21:06:25.505Z,10.00
2023-03-25T21:11:30.732Z,10.00
2023-03-25T21:16:33.140Z,10.00
2023-03-25T21:21:38.554Z,10.10
2023-03-25T21:26:40.437Z,10.10
2023-03-25T21:31:43.652Z,10.20
2023-03-25T21:36:45.578Z,10.10
2023-03-25T21:41:47.398Z,10.10
2023-03-25T21:46:49.423Z,10.00
2023-03-25T21:51:57.018Z,10.00
2023-03-25T21:57:04.694Z,9.80
2023-03-25T22:02:08.741Z,9.70
2023-03-25T22:07:11.173Z,9.70
2023-03-25T22:12:12.946Z,9.70
2023-03-25T22:17:16.177Z,9.70
2023-03-25T22:22:20.811Z,9.50
2023-03-25T22:27:23.059Z,9.40
2023-03-25T22:32:27.676Z,9.40
2023-03-25T22:37:30.074Z,9.30
2023-03-25T22:42:31.731Z,9.30
2023-03-25T22:47:33.548Z,9.40
2023-03-25T22:52:35.644Z,9.30
2023-03-25T22:57:37.810Z,9.30
2023-03-25T23:02:39.567Z,9.40
2023-03-25T23:07:41.462Z,9.30
2023-03-25T23:12:43.198Z,9.20
2023-03-25T23:17:44.949Z,9.10
2023-03-25T23:22:46.739Z,9.10
2023-03-25T23:27:50.418Z,9.10
2023-03-25T23:32:52.134Z,9.00
2023-03-25T23:37:54.219Z,8.90
2023-03-25T23:42:55.961Z,9.10
2023-03-25T23:47:57.716Z,9.20
2023-03-25T23:53:01.511Z,9.20
2023-03-25T23:58:03.311Z,9.30
